Time;durP1;ratioP1;P1;durP2;ratioP2;P2;SDS_P1;SDS_P2;PMS_P1;PMS_P2;Temp;Humidity;BMP_temperature;BMP_pressure;BME280_temperature;BME280_humidity;BME280_pressure;Samples;Min_cycle;Max_cycle;Signal;HPM_P1;HPM_P2
2024/04/23 00:02:14;;;;;;;;;;;;;;;;;;5455494;26;20005;-61
2024/04/23 00:04:39;;;;;;;;;;;;;;;;;;5453318;26;19935;-61
2024/04/23 00:07:04;;;;;;;;;;;;;;;;;;5456268;26;19961;-61
2024/04/23 00:09:29;;;;;;;;;;;;;;;;;;5454525;26;19959;-61
2024/04/23 00:11:54;;;;;;;;;;;;;;;;;;5456567;26;19929;-60
2024/04/23 00:14:19;;;;;;;;;;;;;;;;;;5472315;26;19928;-61
2024/04/23 00:16:44;;;;;;;;;;;;;;;;;;5454365;26;19936;-61
2024/04/23 00:19:09;;;;;;;;;;;;;;;;;;5449312;26;19932;-61
2024/04/23 00:21:35;;;;;;;;;;;;;;;;;;5450732;26;19936;-61
2024/04/23 00:24:00;;;;;;;;;;;;;;;;;;5452351;26;19929;-61
2024/04/23 00:26:25;;;;;;;;;;;;;;;;;;5448993;26;19936;-61
2024/04/23 00:28:51;;;;;;;;;;;;;;;;;;5450884;26;19956;-61
2024/04/23 00:31:16;;;;;;;;;;;;;;;;;;5451932;26;19940;-61
2024/04/23 00:33:42;;;;;;;;;;;;;;;;;;5448895;26;19976;-61
2024/04/23 00:36:07;;;;;;;;;;;;;;;;;;5451437;26;19929;-60
2024/04/23 00:38:32;;;;;;;;;;;;;;;;;;5450938;26;19936;-61
2024/04/23 00:40:57;;;;;;;;;;;;;;;;;;5451412;26;19975;-61
2024/04/23 00:43:22;;;;;;;;;;;;;;;;;;5467547;26;20084;-61
2024/04/23 00:45:47;;;;;;;;;;;;;;;;;;5457493;26;19935;-59
2024/04/23 00:48:12;;;;;;;;;;;;;;;;;;5451060;26;19928;-59
2024/04/23 00:50:38;;;;;;;;;;;;;;;;;;5450825;26;20377;-59
2024/04/23 00:53:03;;;;;;;;;;;;;;;;;;5451042;26;19935;-59
2024/04/23 00:55:28;;;;;;;;;;;;;;;;;;5451292;26;19964;-59
2024/04/23 00:57:53;;;;;;;;;;;;;;;;;;5451370;26;19929;-59
2024/04/23 01:00:18;;;;;;;;;;;;;;;;;;5450922;26;19937;-60
2024/04/23 01:02:43;;;;;;;;;;;;;;;;;;5450150;26;19936;-59
2024/04/23 01:05:08;;;;;;;;;;;;;;;;;;5449252;26;19936;-59
2024/04/23 01:07:33;;;;;;;;;;;;;;;;;;5450372;26;19929;-59
2024/04/23 01:09:59;;;;;;;;;;;;;;;;;;5451734;26;19936;-59
2024/04/23 01:12:24;;;;;;;;;;;;;;;;;;5451935;26;19980;-59
2024/04/23 01:14:49;;;;;;;;;;;;;;;;;;5454666;26;19929;-60
2024/04/23 01:17:14;;;;;;;;;;;;;;;;;;5452042;26;19933;-59
2024/04/23 01:19:39;;;;;;;;;;;;;;;;;;5452601;26;20615;-59
2024/04/23 01:22:04;;;;;;;;;;;;;;;;;;5450747;26;19953;-60
2024/04/23 01:24:29;;;;;;;;;;;;;;;;;;5450285;26;19940;-59
2024/04/23 01:26:55;;;;;;;;;;;;;;;;;;5449901;26;19935;-59
2024/04/23 01:29:20;;;;;;;;;;;;;;;;;;5451450;26;20005;-59
2024/04/23 01:31:45;;;;;;;;;;;;;;;;;;5450478;26;20273;-60
2024/04/23 01:34:10;;;;;;;;;;;;;;;;;;5450638;26;19936;-60
2024/04/23 01:36:35;;;;;;;;;;;;;;;;;;5450340;26;19936;-59
2024/04/23 01:39:00;;;;;;;;;;;;;;;;;;5451454;26;19940;-59
2024/04/23 01:41:25;;;;;;;;;;;;;;;;;;5450479;26;19940;-60
2024/04/23 01:43:50;;;;;;;;;;;;;;;;;;5461216;26;19933;-60
2024/04/23 01:46:16;;;;;;;;;;;;;;;;;;5445879;26;19936;-60
2024/04/23 01:48:41;;;;;;;;;;;;;;;;;;5450647;26;20047;-59
2024/04/23 01:51:06;;;;;;;;;;;;;;;;;;5449686;26;19936;-59
2024/04/23 01:53:31;;;;;;;;;;;;;;;;;;5450712;26;19935;-60
2024/04/23 01:55:56;;;;;;;;;;;;;;;;;;5450730;26;19935;-59
2024/04/23 01:58:21;;;;;;;;;;;;;;;;;;5450960;26;19940;-60
2024/04/23 02:00:46;;;;;;;;;;;;;;;;;;5450624;26;19936;-60
2024/04/23 02:03:11;;;;;;;;;;;;;;;;;;5448825;26;19996;-59
2024/04/23 02:05:36;;;;;;;;;;;;;;;;;;5450606;26;19929;-60
2024/04/23 02:08:02;;;;;;;;;;;;;;;;;;5450426;26;19930;-59
2024/04/23 02:10:27;;;;;;;;;;;;;;;;;;5450813;26;19935;-59
2024/04/23 02:12:52;;;;;;;;;;;;;;;;;;5452750;26;19936;-59
2024/04/23 02:15:17;;;;;;;;;;;;;;;;;;5449299;26;19943;-60
2024/04/23 02:17:42;;;;;;;;;;;;;;;;;;5450490;26;20057;-60
2024/04/23 02:20:08;;;;;;;;;;;;;;;;;;5450891;26;19936;-59
2024/04/23 02:22:33;;;;;;;;;;;;;;;;;;5448404;26;19933;-59
2024/04/23 02:24:58;;;;;;;;;;;;;;;;;;5449488;26;19929;-59
2024/04/23 02:27:23;;;;;;;;;;;;;;;;;;5450497;26;19928;-60
2024/04/23 02:29:48;;;;;;;;;;;;;;;;;;5450315;26;19939;-59
2024/04/23 02:32:13;;;;;;;;;;;;;;;;;;5447722;26;19929;-60
2024/04/23 02:34:38;;;;;;;;;;;;;;;;;;5450440;26;19929;-60
2024/04/23 02:37:03;;;;;;;;;;;;;;;;;;5448695;26;19997;-59
2024/04/23 02:39:29;;;;;;;;;;;;;;;;;;5448314;26;19940;-59
2024/04/23 02:41:54;;;;;;;;;;;;;;;;;;5449478;26;19956;-61
2024/04/23 02:44:19;;;;;;;;;;;;;;;;;;5469450;26;20459;-59
2024/04/23 02:46:44;;;;;;;;;;;;;;;;;;5449991;26;19928;-60
2024/04/23 02:49:09;;;;;;;;;;;;;;;;;;5449558;26;19929;-59
2024/04/23 02:51:34;;;;;;;;;;;;;;;;;;5449829;26;19940;-58
2024/04/23 02:53:59;;;;;;;;;;;;;;;;;;5447657;26;19932;-58
2024/04/23 02:56:25;;;;;;;;;;;;;;;;;;5449924;26;19929;-59
2024/04/23 02:58:51;;;;;;;;;;;;;;;;;;5449764;26;19944;-60
2024/04/23 03:01:16;;;;;;;;;;;;;;;;;;5449759;26;19939;-59
2024/04/23 03:03:41;;;;;;;;;;;;;;;;;;5449042;26;19929;-60
2024/04/23 03:06:06;;;;;;;;;;;;;;;;;;5451057;26;19929;-59
2024/04/23 03:08:31;;;;;;;;;;;;;;;;;;5447349;26;19960;-58
2024/04/23 03:10:56;;;;;;;;;;;;;;;;;;5450047;26;19997;-58
2024/04/23 03:13:22;;;;;;;;;;;;;;;;;;5456557;26;19997;-59
2024/04/23 03:15:47;;;;;;;;;;;;;;;;;;5450205;26;19936;-61
2024/04/23 03:18:12;;;;;;;;;;;;;;;;;;5446996;26;19935;-59
2024/04/23 03:20:37;;;;;;;;;;;;;;;;;;5449966;26;19935;-59
2024/04/23 03:23:02;;;;;;;;;;;;;;;;;;5449083;26;19935;-59
2024/04/23 03:25:27;;;;;;;;;;;;;;;;;;5476570;26;19944;-60
2024/04/23 03:27:52;;;;;;;;;;;;;;;;;;5449759;26;19936;-60
2024/04/23 03:30:17;;;;;;;;;;;;;;;;;;5449328;26;19928;-59
2024/04/23 03:32:43;;;;;;;;;;;;;;;;;;5449526;26;19929;-59
2024/04/23 03:35:08;;;;;;;;;;;;;;;;;;5449179;26;19934;-59
2024/04/23 03:37:33;;;;;;;;;;;;;;;;;;5449973;26;20327;-59
2024/04/23 03:39:58;;;;;;;;;;;;;;;;;;5446896;26;19961;-60
2024/04/23 03:42:23;;;;;;;;;;;;;;;;;;5448815;26;20377;-59
2024/04/23 03:44:48;;;;;;;;;;;;;;;;;;5458193;26;19935;-59
2024/04/23 03:47:13;;;;;;;;;;;;;;;;;;5448481;26;19943;-59
2024/04/23 03:49:39;;;;;;;;;;;;;;;;;;5449716;26;19929;-59
2024/04/23 03:52:04;;;;;;;;;;;;;;;;;;5449806;26;19934;-60
2024/04/23 03:54:29;;;;;;;;;;;;;;;;;;5452886;26;19928;-59
2024/04/23 03:56:54;;;;;;;;;;;;;;;;;;5451243;26;19929;-59
2024/04/23 03:59:19;;;;;;;;;;;;;;;;;;5459150;26;19952;-60
2024/04/23 04:01:44;;;;;;;;;;;;;;;;;;5459440;26;19940;-60
2024/04/23 04:06:53;;;;;;;;;;;;;;;;;;5458811;26;20287;-59
2024/04/23 04:09:18;;;;;;;;;;;;;;;;;;5452501;26;20692;-59
2024/04/23 04:11:43;;;;;;;;;;;;;;;;;;5449811;26;20605;-59
2024/04/23 04:14:08;;;;;;;;;;;;;;;;;;5474553;26;20469;-59
2024/04/23 04:16:33;;;;;;;;;;;;;;;;;;5478839;26;20330;-61
2024/04/23 04:18:59;;;;;;;;;;;;;;;;;;5474739;26;20644;-59
2024/04/23 04:21:24;;;;;;;;;;;;;;;;;;5479824;26;19932;-60
2024/04/23 04:23:49;;;;;;;;;;;;;;;;;;5478905;26;19928;-59
2024/04/23 04:26:15;;;;;;;;;;;;;;;;;;5477884;26;19968;-60
2024/04/23 04:28:43;;;;;;;;;;;;;;;;;;5454039;26;20262;-63
2024/04/23 04:31:08;;;;;;;;;;;;;;;;;;5459189;26;19928;-61
2024/04/23 04:33:33;;;;;;;;;;;;;;;;;;5469086;26;19927;-61
2024/04/23 04:35:58;;;;;;;;;;;;;;;;;;5463883;26;19936;-60
2024/04/23 04:38:23;;;;;;;;;;;;;;;;;;5456851;26;19936;-62
2024/04/23 04:40:50;;;;;;;;;;;;;;;;;;5451161;26;19998;-61
2024/04/23 04:43:15;;;;;;;;;;;;;;;;;;5462549;26;20297;-61
2024/04/23 04:45:40;;;;;;;;;;;;;;;;;;5451648;26;19928;-59
2024/04/23 04:48:05;;;;;;;;;;;;;;;;;;5448787;26;19944;-58
2024/04/23 04:50:30;;;;;;;;;;;;;;;;;;5452242;26;19961;-58
2024/04/23 04:52:55;;;;;;;;;;;;;;;;;;5451299;26;19928;-59
2024/04/23 04:55:21;;;;;;;;;;;;;;;;;;5452405;26;19948;-59
2024/04/23 04:57:47;;;;;;;;;;;;;;;;;;5448882;26;21614;-59
2024/04/23 05:00:13;;;;;;;;;;;;;;;;;;5450511;26;19928;-58
2024/04/23 05:02:38;;;;;;;;;;;;;;;;;;5451603;26;19952;-59
2024/04/23 05:05:03;;;;;;;;;;;;;;;;;;5451377;26;19928;-59
2024/04/23 05:07:28;;;;;;;;;;;;;;;;;;5451618;26;19940;-59
2024/04/23 05:09:53;;;;;;;;;;;;;;;;;;5452215;26;19932;-59
2024/04/23 05:12:18;;;;;;;;;;;;;;;;;;5449620;26;19937;-59
2024/04/23 05:14:43;;;;;;;;;;;;;;;;;;5451740;26;19928;-59
2024/04/23 05:17:08;;;;;;;;;;;;;;;;;;5450768;26;19928;-59
2024/04/23 05:19:34;;;;;;;;;;;;;;;;;;5451388;26;19929;-59
2024/04/23 05:21:59;;;;;;;;;;;;;;;;;;5451990;26;19933;-59
2024/04/23 05:24:24;;;;;;;;;;;;;;;;;;5451417;26;20377;-59
2024/04/23 05:26:49;;;;;;;;;;;;;;;;;;5451821;26;20269;-59
2024/04/23 05:29:14;;;;;;;;;;;;;;;;;;5450744;26;20296;-60
2024/04/23 05:34:23;;;;;;;;;;;;;;;;;;5444420;26;19994;-60
2024/04/23 05:36:48;;;;;;;;;;;;;;;;;;5434291;26;20342;-59
2024/04/23 05:39:13;;;;;;;;;;;;;;;;;;5445762;26;19936;-59
2024/04/23 05:41:38;;;;;;;;;;;;;;;;;;5445703;26;20373;-59
2024/04/23 05:44:03;;;;;;;;;;;;;;;;;;5451845;26;19940;-60
2024/04/23 05:46:29;;;;;;;;;;;;;;;;;;5447370;26;20025;-59
2024/04/23 05:48:54;;;;;;;;;;;;;;;;;;5446285;26;19932;-60
2024/04/23 05:51:19;;;;;;;;;;;;;;;;;;5447721;26;19944;-60
2024/04/23 05:53:44;;;;;;;;;;;;;;;;;;5449458;26;19957;-60
2024/04/23 05:56:09;;;;;;;;;;;;;;;;;;5450709;26;20369;-59
2024/04/23 05:58:34;;;;;;;;;;;;;;;;;;5451156;26;20479;-60
2024/04/23 06:00:59;;;;;;;;;;;;;;;;;;5448999;26;19936;-60
2024/04/23 06:03:24;;;;;;;;;;;;;;;;;;5450813;26;19928;-59
2024/04/23 06:05:49;;;;;;;;;;;;;;;;;;5451238;26;20668;-59
2024/04/23 06:08:15;;;;;;;;;;;;;;;;;;5450824;26;19935;-60
2024/04/23 06:10:40;;;;;;;;;;;;;;;;;;5448173;26;19977;-59
2024/04/23 06:13:05;;;;;;;;;;;;;;;;;;5462421;26;19996;-60
2024/04/23 06:15:30;;;;;;;;;;;;;;;;;;5449370;26;19929;-60
2024/04/23 06:17:55;;;;;;;;;;;;;;;;;;5450602;26;19936;-61
2024/04/23 06:20:21;;;;;;;;;;;;;;;;;;5449709;26;20359;-60
2024/04/23 06:22:48;;;;;;;;;;;;;;;;;;5451430;26;19935;-60
2024/04/23 06:25:13;;;;;;;;;;;;;;;;;;5450796;26;19928;-60
2024/04/23 06:27:38;;;;;;;;;;;;;;;;;;5450506;26;19935;-59
2024/04/23 06:30:04;;;;;;;;;;;;;;;;;;5449198;26;19929;-60
2024/04/23 06:32:29;;;;;;;;;;;;;;;;;;5448852;26;19936;-60
2024/04/23 06:34:54;;;;;;;;;;;;;;;;;;5450510;26;19935;-60
2024/04/23 06:37:19;;;;;;;;;;;;;;;;;;5450252;26;20279;-62
2024/04/23 06:39:45;;;;;;;;;;;;;;;;;;5449110;26;19993;-62
2024/04/23 06:42:11;;;;;;;;;;;;;;;;;;5450834;26;19936;-62
2024/04/23 06:44:36;;;;;;;;;;;;;;;;;;5459732;26;20010;-62
2024/04/23 06:47:01;;;;;;;;;;;;;;;;;;5447929;26;19940;-62
2024/04/23 06:49:26;;;;;;;;;;;;;;;;;;5449248;26;19928;-62
2024/04/23 06:51:51;;;;;;;;;;;;;;;;;;5449990;26;19990;-61
2024/04/23 06:54:16;;;;;;;;;;;;;;;;;;5450681;26;19944;-61
2024/04/23 06:56:42;;;;;;;;;;;;;;;;;;5450716;26;20026;-61
2024/04/23 06:59:07;;;;;;;;;;;;;;;;;;5448945;26;19960;-62
2024/04/23 07:01:32;;;;;;;;;;;;;;;;;;5448056;26;19936;-62
2024/04/23 07:03:57;;;;;;;;;;;;;;;;;;5450615;26;19936;-62
2024/04/23 07:06:22;;;;;;;;;;;;;;;;;;5450459;26;19928;-61
2024/04/23 07:08:48;;;;;;;;;;;;;;;;;;5450360;26;19935;-61
2024/04/23 07:11:13;;;;;;;;;;;;;;;;;;5450705;26;19978;-61
2024/04/23 07:13:38;;;;;;;;;;;;;;;;;;5450465;26;19935;-61
2024/04/23 07:16:03;;;;;;;;;;;;;;;;;;5449618;26;19936;-62
2024/04/23 07:18:28;;;;;;;;;;;;;;;;;;5446637;26;19940;-61
2024/04/23 07:20:53;;;;;;;;;;;;;;;;;;5447618;26;19929;-61
2024/04/23 07:23:19;;;;;;;;;;;;;;;;;;5449991;26;19939;-61
2024/04/23 07:25:44;;;;;;;;;;;;;;;;;;5449932;26;19935;-61
2024/04/23 07:28:09;;;;;;;;;;;;;;;;;;5453142;26;19935;-62
2024/04/23 07:30:35;;;;;;;;;;;;;;;;;;5454191;26;19935;-62
2024/04/23 07:33:00;;;;;;;;;;;;;;;;;;5453581;26;19939;-62
2024/04/23 07:35:25;;;;;;;;;;;;;;;;;;5453879;26;20514;-62
2024/04/23 07:37:50;;;;;;;;;;;;;;;;;;5452285;26;20323;-62
2024/04/23 07:40:15;;;;;;;;;;;;;;;;;;5451927;26;20333;-62
2024/04/23 07:42:40;;;;;;;;;;;;;;;;;;5458530;26;20025;-62
2024/04/23 07:45:06;;;;;;;;;;;;;;;;;;5457484;26;19944;-62
2024/04/23 07:47:32;;;;;;;;;;;;;;;;;;5450927;26;20292;-60
2024/04/23 07:49:58;;;;;;;;;;;;;;;;;;5452397;26;20331;-60
2024/04/23 07:52:23;;;;;;;;;;;;;;;;;;5453072;26;20339;-60
2024/04/23 07:54:50;;;;;;;;;;;;;;;;;;5452415;26;20318;-61
2024/04/23 07:57:15;;;;;;;;;;;;;;;;;;5452349;26;20368;-60
2024/04/23 07:59:40;;;;;;;;;;;;;;;;;;5452358;26;19929;-60
2024/04/23 08:02:05;;;;;;;;;;;;;;;;;;5452012;26;19961;-60
2024/04/23 08:04:30;;;;;;;;;;;;;;;;;;5449642;26;20488;-61
2024/04/23 08:06:56;;;;;;;;;;;;;;;;;;5452759;26;20401;-60
2024/04/23 08:09:21;;;;;;;;;;;;;;;;;;5452779;26;19935;-60
2024/04/23 08:11:46;;;;;;;;;;;;;;;;;;5452909;26;20269;-60
2024/04/23 08:14:11;;;;;;;;;;;;;;;;;;5476365;26;20300;-60
2024/04/23 08:16:36;;;;;;;;;;;;;;;;;;5452131;26;20366;-59
2024/04/23 08:19:01;;;;;;;;;;;;;;;;;;5451971;26;19932;-60
2024/04/23 08:21:28;;;;;;;;;;;;;;;;;;5452319;26;19937;-60
2024/04/23 08:23:53;;;;;;;;;;;;;;;;;;5452888;26;19961;-60
2024/04/23 08:26:18;;;;;;;;;;;;;;;;;;5452320;26;20615;-60
2024/04/23 08:28:44;;;;;;;;;;;;;;;;;;5452992;26;20369;-60
2024/04/23 08:31:09;;;;;;;;;;;;;;;;;;5452263;26;19940;-61
2024/04/23 08:33:34;;;;;;;;;;;;;;;;;;5451943;26;19928;-61
2024/04/23 08:36:00;;;;;;;;;;;;;;;;;;5448661;26;19994;-60
2024/04/23 08:38:25;;;;;;;;;;;;;;;;;;5450320;26;19928;-60
2024/04/23 08:40:50;;;;;;;;;;;;;;;;;;5451098;26;19936;-61
2024/04/23 08:43:15;;;;;;;;;;;;;;;;;;5465538;26;19927;-60
2024/04/23 08:45:40;;;;;;;;;;;;;;;;;;5465666;26;19928;-59
2024/04/23 08:48:06;;;;;;;;;;;;;;;;;;5452571;26;19928;-60
2024/04/23 08:50:31;;;;;;;;;;;;;;;;;;5449693;26;19979;-60
2024/04/23 08:52:56;;;;;;;;;;;;;;;;;;5451162;26;19935;-60
2024/04/23 08:55:21;;;;;;;;;;;;;;;;;;5452567;26;19939;-60
2024/04/23 08:57:46;;;;;;;;;;;;;;;;;;5451875;26;19997;-60
2024/04/23 09:00:11;;;;;;;;;;;;;;;;;;5451675;26;19929;-60
2024/04/23 09:02:37;;;;;;;;;;;;;;;;;;5450900;26;19940;-59
2024/04/23 09:05:02;;;;;;;;;;;;;;;;;;5448974;26;20381;-60
2024/04/23 09:07:27;;;;;;;;;;;;;;;;;;5451614;26;19937;-60
2024/04/23 09:09:53;;;;;;;;;;;;;;;;;;5451575;26;19931;-61
2024/04/23 09:12:18;;;;;;;;;;;;;;;;;;5452335;26;19935;-61
2024/04/23 09:14:44;;;;;;;;;;;;;;;;;;5473443;26;19928;-60
2024/04/23 09:17:10;;;;;;;;;;;;;;;;;;5452062;26;20290;-59
2024/04/23 09:19:35;;;;;;;;;;;;;;;;;;5451274;26;20361;-61
2024/04/23 09:22:00;;;;;;;;;;;;;;;;;;5446021;26;20361;-60
2024/04/23 09:24:30;;;;;;;;;;;;;;;;;;5452216;26;19929;-60
2024/04/23 09:26:55;;;;;;;;;;;;;;;;;;5451532;26;20372;-60
2024/04/23 09:29:20;;;;;;;;;;;;;;;;;;5451133;26;19940;-60
2024/04/23 09:31:46;;;;;;;;;;;;;;;;;;5451273;26;19928;-59
2024/04/23 09:34:11;;;;;;;;;;;;;;;;;;5451340;26;20365;-61
2024/04/23 09:36:38;;;;;;;;;;;;;;;;;;5449630;26;20397;-60
2024/04/23 09:39:03;;;;;;;;;;;;;;;;;;5451182;26;19935;-60
2024/04/23 09:41:30;;;;;;;;;;;;;;;;;;5451030;26;20369;-60
2024/04/23 09:43:55;;;;;;;;;;;;;;;;;;5474815;26;19928;-60
2024/04/23 09:46:20;;;;;;;;;;;;;;;;;;5488157;26;19928;-60
2024/04/23 09:48:45;;;;;;;;;;;;;;;;;;5453528;26;19928;-60
2024/04/23 09:51:10;;;;;;;;;;;;;;;;;;5448963;26;19935;-60
2024/04/23 09:53:36;;;;;;;;;;;;;;;;;;5450676;26;19940;-61
2024/04/23 09:56:02;;;;;;;;;;;;;;;;;;5451824;26;19928;-60
2024/04/23 09:58:27;;;;;;;;;;;;;;;;;;5450542;26;20764;-60
2024/04/23 10:00:52;;;;;;;;;;;;;;;;;;5450840;26;19929;-60
2024/04/23 10:03:17;;;;;;;;;;;;;;;;;;5449741;26;20357;-60
2024/04/23 10:05:46;;;;;;;;;;;;;;;;;;5448911;26;19940;-58
2024/04/23 10:08:11;;;;;;;;;;;;;;;;;;5448832;26;20364;-61
2024/04/23 10:10:36;;;;;;;;;;;;;;;;;;5448891;26;19935;-61
2024/04/23 10:13:02;;;;;;;;;;;;;;;;;;5451262;26;19929;-61
2024/04/23 10:15:27;;;;;;;;;;;;;;;;;;5450681;26;20018;-62
2024/04/23 10:17:52;;;;;;;;;;;;;;;;;;5447865;26;20004;-62
2024/04/23 10:20:19;;;;;;;;;;;;;;;;;;5450920;26;20010;-61
2024/04/23 10:22:44;;;;;;;;;;;;;;;;;;5448066;26;20260;-61
2024/04/23 10:25:10;;;;;;;;;;;;;;;;;;5449953;26;20361;-60
2024/04/23 10:27:37;;;;;;;;;;;;;;;;;;5449559;26;19936;-60
2024/04/23 10:30:03;;;;;;;;;;;;;;;;;;5450063;26;19928;-61
2024/04/23 10:32:28;;;;;;;;;;;;;;;;;;5449743;26;19935;-61
2024/04/23 10:34:55;;;;;;;;;;;;;;;;;;5450030;26;19940;-61
2024/04/23 10:37:21;;;;;;;;;;;;;;;;;;5450264;26;19935;-65
2024/04/23 10:39:46;;;;;;;;;;;;;;;;;;5447470;26;20373;-61
2024/04/23 10:42:11;;;;;;;;;;;;;;;;;;5450054;26;20272;-61
2024/04/23 10:44:36;;;;;;;;;;;;;;;;;;5465812;26;19935;-61
2024/04/23 10:47:02;;;;;;;;;;;;;;;;;;5445526;26;19947;-61
2024/04/23 10:49:27;;;;;;;;;;;;;;;;;;5449366;26;20180;-61
2024/04/23 10:51:52;;;;;;;;;;;;;;;;;;5449696;26;19935;-61
2024/04/23 10:54:17;;;;;;;;;;;;;;;;;;5447292;26;19928;-61
2024/04/23 10:56:42;;;;;;;;;;;;;;;;;;5450360;26;19956;-61
2024/04/23 10:59:08;;;;;;;;;;;;;;;;;;5447920;26;19940;-61
2024/04/23 11:01:33;;;;;;;;;;;;;;;;;;5448618;26;19928;-61
2024/04/23 11:03:58;;;;;;;;;;;;;;;;;;5447977;26;19956;-61
2024/04/23 11:06:23;;;;;;;;;;;;;;;;;;5447619;26;19940;-61
2024/04/23 11:08:49;;;;;;;;;;;;;;;;;;5451061;26;19929;-61
2024/04/23 11:11:14;;;;;;;;;;;;;;;;;;5450499;26;20384;-60
2024/04/23 11:13:39;;;;;;;;;;;;;;;;;;5450567;26;19935;-61
2024/04/23 11:16:04;;;;;;;;;;;;;;;;;;5450290;26;19929;-61
2024/04/23 11:18:30;;;;;;;;;;;;;;;;;;5450311;26;19999;-61
2024/04/23 11:20:55;;;;;;;;;;;;;;;;;;5450302;26;19936;-61
2024/04/23 11:23:20;;;;;;;;;;;;;;;;;;5450000;26;20377;-61
2024/04/23 11:25:46;;;;;;;;;;;;;;;;;;5449697;26;19928;-61
2024/04/23 11:28:11;;;;;;;;;;;;;;;;;;5450039;26;19940;-61
2024/04/23 11:30:36;;;;;;;;;;;;;;;;;;5450242;26;20361;-61
2024/04/23 11:33:02;;;;;;;;;;;;;;;;;;5449858;26;19928;-61
2024/04/23 11:35:27;;;;;;;;;;;;;;;;;;5450082;26;20293;-61
2024/04/23 11:37:52;;;;;;;;;;;;;;;;;;5450005;26;19944;-61
2024/04/23 11:40:17;;;;;;;;;;;;;;;;;;5449475;26;19935;-61
2024/04/23 11:42:42;;;;;;;;;;;;;;;;;;5455072;26;20366;-61
2024/04/23 11:45:07;;;;;;;;;;;;;;;;;;5486134;26;20295;-61
2024/04/23 11:47:33;;;;;;;;;;;;;;;;;;5486076;26;19943;-61
2024/04/23 11:49:58;;;;;;;;;;;;;;;;;;5453270;26;20381;-61
2024/04/23 11:52:24;;;;;;;;;;;;;;;;;;5449177;26;19928;-61
2024/04/23 11:54:49;;;;;;;;;;;;;;;;;;5448657;26;19929;-61
2024/04/23 11:57:15;;;;;;;;;;;;;;;;;;5449307;26;19928;-61
2024/04/23 11:59:41;;;;;;;;;;;;;;;;;;5449845;26;19935;-61
2024/04/23 12:02:06;;;;;;;;;;;;;;;;;;5449893;26;20265;-61
2024/04/23 12:04:32;;;;;;;;;;;;;;;;;;5449535;26;20417;-61
2024/04/23 12:06:57;;;;;;;;;;;;;;;;;;5449478;26;20017;-61
2024/04/23 12:09:23;;;;;;;;;;;;;;;;;;5449354;26;19929;-62
2024/04/23 12:11:48;;;;;;;;;;;;;;;;;;5446895;26;19931;-61
2024/04/23 12:14:13;;;;;;;;;;;;;;;;;;5452122;26;19929;-61
2024/04/23 12:16:38;;;;;;;;;;;;;;;;;;5450613;26;20262;-61
2024/04/23 12:19:03;;;;;;;;;;;;;;;;;;5452382;26;19928;-61
2024/04/23 12:21:29;;;;;;;;;;;;;;;;;;5453546;26;20475;-61
2024/04/23 12:23:54;;;;;;;;;;;;;;;;;;5450834;26;19968;-61
2024/04/23 12:26:21;;;;;;;;;;;;;;;;;;5450094;26;19929;-60
2024/04/23 12:28:46;;;;;;;;;;;;;;;;;;5451864;26;19929;-61
2024/04/23 12:31:11;;;;;;;;;;;;;;;;;;5452006;26;19939;-61
2024/04/23 12:33:36;;;;;;;;;;;;;;;;;;5451998;26;19936;-61
2024/04/23 12:36:01;;;;;;;;;;;;;;;;;;5451340;26;19928;-61
2024/04/23 12:38:27;;;;;;;;;;;;;;;;;;5453119;26;20273;-61
2024/04/23 12:40:52;;;;;;;;;;;;;;;;;;5446391;26;20268;-61
2024/04/23 12:43:17;;;;;;;;;;;;;;;;;;5452475;26;19940;-61
2024/04/23 12:45:42;;;;;;;;;;;;;;;;;;5452599;26;19928;-61
2024/04/23 12:48:07;;;;;;;;;;;;;;;;;;5452378;26;19929;-62
2024/04/23 12:50:32;;;;;;;;;;;;;;;;;;5452825;26;20354;-61
2024/04/23 12:52:58;;;;;;;;;;;;;;;;;;5452263;26;20365;-61
2024/04/23 12:55:23;;;;;;;;;;;;;;;;;;5450753;26;19928;-61
2024/04/23 12:57:48;;;;;;;;;;;;;;;;;;5449806;26;19928;-61
2024/04/23 13:00:13;;;;;;;;;;;;;;;;;;5449780;26;19936;-61
2024/04/23 13:02:38;;;;;;;;;;;;;;;;;;5449661;26;19928;-61
2024/04/23 13:05:03;;;;;;;;;;;;;;;;;;5451448;26;20294;-61
2024/04/23 13:07:28;;;;;;;;;;;;;;;;;;5452660;26;20265;-64
2024/04/23 13:09:53;;;;;;;;;;;;;;;;;;5450685;26;20390;-60
2024/04/23 13:12:18;;;;;;;;;;;;;;;;;;5452087;26;20000;-61
2024/04/23 13:14:44;;;;;;;;;;;;;;;;;;5449020;26;20376;-61
2024/04/23 13:17:09;;;;;;;;;;;;;;;;;;5452157;26;19928;-61
2024/04/23 13:19:34;;;;;;;;;;;;;;;;;;5450530;26;20362;-60
2024/04/23 13:21:59;;;;;;;;;;;;;;;;;;5451114;26;19928;-61
2024/04/23 13:24:24;;;;;;;;;;;;;;;;;;5448277;26;19935;-61
2024/04/23 13:26:49;;;;;;;;;;;;;;;;;;5452305;26;20284;-61
2024/04/23 13:29:15;;;;;;;;;;;;;;;;;;5449072;26;19940;-61
2024/04/23 13:31:40;;;;;;;;;;;;;;;;;;5450020;26;20460;-61
2024/04/23 13:34:07;;;;;;;;;;;;;;;;;;5451041;26;19929;-61
2024/04/23 13:36:32;;;;;;;;;;;;;;;;;;5450594;26;19944;-61
2024/04/23 13:38:57;;;;;;;;;;;;;;;;;;5451827;26;19936;-61
2024/04/23 13:41:22;;;;;;;;;;;;;;;;;;5451185;26;19935;-60
2024/04/23 13:43:48;;;;;;;;;;;;;;;;;;5450655;26;19960;-61
2024/04/23 13:46:13;;;;;;;;;;;;;;;;;;5450596;26;19929;-61
2024/04/23 13:48:38;;;;;;;;;;;;;;;;;;5449858;26;19936;-61
2024/04/23 13:51:04;;;;;;;;;;;;;;;;;;5448623;26;19932;-60
2024/04/23 13:53:29;;;;;;;;;;;;;;;;;;5451032;26;19936;-61
2024/04/23 13:55:54;;;;;;;;;;;;;;;;;;5450462;26;19964;-60
2024/04/23 13:58:19;;;;;;;;;;;;;;;;;;5451129;26;19928;-61
2024/04/23 14:00:44;;;;;;;;;;;;;;;;;;5448048;26;19928;-60
2024/04/23 14:03:09;;;;;;;;;;;;;;;;;;5448336;26;19929;-61
2024/04/23 14:05:34;;;;;;;;;;;;;;;;;;5451186;26;20284;-61
2024/04/23 14:08:00;;;;;;;;;;;;;;;;;;5450636;26;19939;-61
2024/04/23 14:10:25;;;;;;;;;;;;;;;;;;5449831;26;20276;-61
2024/04/23 14:12:50;;;;;;;;;;;;;;;;;;5458691;26;20376;-61
2024/04/23 14:15:16;;;;;;;;;;;;;;;;;;5460093;26;20368;-61
2024/04/23 14:17:41;;;;;;;;;;;;;;;;;;5451185;26;19929;-60
2024/04/23 14:20:06;;;;;;;;;;;;;;;;;;5450594;26;19938;-61
2024/04/23 14:22:31;;;;;;;;;;;;;;;;;;5451325;26;20346;-61
2024/04/23 14:24:56;;;;;;;;;;;;;;;;;;5450420;26;20265;-61
2024/04/23 14:27:22;;;;;;;;;;;;;;;;;;5451135;26;20413;-61
2024/04/23 14:29:47;;;;;;;;;;;;;;;;;;5450168;26;19928;-60
2024/04/23 14:32:14;;;;;;;;;;;;;;;;;;5447871;26;19935;-61
2024/04/23 14:34:39;;;;;;;;;;;;;;;;;;5449175;26;19933;-61
2024/04/23 14:37:04;;;;;;;;;;;;;;;;;;5446995;26;19928;-61
2024/04/23 14:39:29;;;;;;;;;;;;;;;;;;5449783;26;19928;-61
2024/04/23 14:41:55;;;;;;;;;;;;;;;;;;5449487;26;19928;-61
2024/04/23 14:44:20;;;;;;;;;;;;;;;;;;5465989;26;20254;-60
2024/04/23 14:46:46;;;;;;;;;;;;;;;;;;5448111;26;20407;-58
2024/04/23 14:49:11;;;;;;;;;;;;;;;;;;5450775;26;19940;-57
2024/04/23 14:51:36;;;;;;;;;;;;;;;;;;5447218;26;19940;-58
2024/04/23 14:54:01;;;;;;;;;;;;;;;;;;5446652;26;19929;-58
2024/04/23 14:56:26;;;;;;;;;;;;;;;;;;5451947;26;19928;-59
2024/04/23 14:58:51;;;;;;;;;;;;;;;;;;5453361;26;20007;-58
2024/04/23 15:01:16;;;;;;;;;;;;;;;;;;5465204;26;19944;-57
2024/04/23 15:03:42;;;;;;;;;;;;;;;;;;5451249;26;19929;-59
2024/04/23 15:06:07;;;;;;;;;;;;;;;;;;5449252;26;19928;-58
2024/04/23 15:08:32;;;;;;;;;;;;;;;;;;5450389;26;20362;-58
2024/04/23 15:10:57;;;;;;;;;;;;;;;;;;5449623;26;20303;-58
2024/04/23 15:13:24;;;;;;;;;;;;;;;;;;5466124;26;20276;-58
2024/04/23 15:15:49;;;;;;;;;;;;;;;;;;5486725;26;19928;-58
2024/04/23 15:18:14;;;;;;;;;;;;;;;;;;5447444;26;19929;-58
2024/04/23 15:20:40;;;;;;;;;;;;;;;;;;5450334;26;19928;-59
2024/04/23 15:23:05;;;;;;;;;;;;;;;;;;5446854;26;19940;-58
2024/04/23 15:25:30;;;;;;;;;;;;;;;;;;5449329;26;19956;-58
2024/04/23 15:27:55;;;;;;;;;;;;;;;;;;5449275;26;19929;-58
2024/04/23 15:30:20;;;;;;;;;;;;;;;;;;5448723;26;19929;-58
2024/04/23 15:32:45;;;;;;;;;;;;;;;;;;5447533;26;19929;-58
2024/04/23 15:35:10;;;;;;;;;;;;;;;;;;5449934;26;19940;-59
2024/04/23 15:37:36;;;;;;;;;;;;;;;;;;5449009;26;20285;-58
2024/04/23 15:40:01;;;;;;;;;;;;;;;;;;5449232;26;19928;-59
2024/04/23 15:42:26;;;;;;;;;;;;;;;;;;5449654;26;19929;-57
2024/04/23 15:44:53;;;;;;;;;;;;;;;;;;5469418;26;19935;-59
2024/04/23 15:47:18;;;;;;;;;;;;;;;;;;5466366;26;19948;-58
2024/04/23 15:49:43;;;;;;;;;;;;;;;;;;5485340;26;19928;-57
2024/04/23 15:52:08;;;;;;;;;;;;;;;;;;5463239;26;19935;-58
2024/04/23 15:54:33;;;;;;;;;;;;;;;;;;5489174;26;19938;-57
2024/04/23 15:56:58;;;;;;;;;;;;;;;;;;5482905;26;19935;-59
2024/04/23 15:59:24;;;;;;;;;;;;;;;;;;5475587;26;20264;-58
2024/04/23 16:01:49;;;;;;;;;;;;;;;;;;5480883;26;19955;-57
2024/04/23 16:04:15;;;;;;;;;;;;;;;;;;5454587;26;19928;-59
2024/04/23 16:06:40;;;;;;;;;;;;;;;;;;5468114;26;19936;-59
2024/04/23 16:09:05;;;;;;;;;;;;;;;;;;5472231;26;19929;-59
2024/04/23 16:11:30;;;;;;;;;;;;;;;;;;5454026;26;19928;-58
2024/04/23 16:13:55;;;;;;;;;;;;;;;;;;5446100;26;19928;-59
2024/04/23 16:16:20;;;;;;;;;;;;;;;;;;5449456;26;19940;-58
2024/04/23 16:18:45;;;;;;;;;;;;;;;;;;5450249;26;19935;-58
2024/04/23 16:21:10;;;;;;;;;;;;;;;;;;5451314;26;19935;-59
2024/04/23 16:23:36;;;;;;;;;;;;;;;;;;5451362;26;19935;-58
2024/04/23 16:26:01;;;;;;;;;;;;;;;;;;5449993;26;19940;-59
2024/04/23 16:28:26;;;;;;;;;;;;;;;;;;5452169;26;19929;-58
2024/04/23 16:30:52;;;;;;;;;;;;;;;;;;5452915;26;19939;-60
2024/04/23 16:33:17;;;;;;;;;;;;;;;;;;5451185;26;20302;-58
2024/04/23 16:35:42;;;;;;;;;;;;;;;;;;5449292;26;19929;-59
2024/04/23 16:38:07;;;;;;;;;;;;;;;;;;5451551;26;19936;-58